createdAt,value
2023-01-29T00:00:52.032Z,18.35
2023-01-29T00:01:52.200Z,18.35
2023-01-29T00:02:52.112Z,18.35
2023-01-29T00:03:52.053Z,18.35
2023-01-29T00:04:52.034Z,18.35
2023-01-29T00:05:52.045Z,18.35
2023-01-29T00:06:52.046Z,18.35
2023-01-29T00:07:52.045Z,18.35
2023-01-29T00:08:52.041Z,18.35
2023-01-29T00:09:52.042Z,18.35
2023-01-29T00:10:52.046Z,18.35
2023-01-29T00:11:52.044Z,18.35
2023-01-29T00:12:52.087Z,18.35
2023-01-29T00:13:52.077Z,18.35
2023-01-29T00:14:52.104Z,18.35
2023-01-29T00:15:52.046Z,18.35
2023-01-29T00:16:52.081Z,18.35
2023-01-29T00:17:52.074Z,18.35
2023-01-29T00:18:52.055Z,18.35
2023-01-29T00:19:52.082Z,18.35
2023-01-29T00:20:52.086Z,18.35
2023-01-29T00:21:52.063Z,18.35
2023-01-29T00:22:52.085Z,18.35
2023-01-29T00:23:52.073Z,18.35
2023-01-29T00:24:52.135Z,18.35
2023-01-29T00:25:52.090Z,18.35
2023-01-29T00:26:52.066Z,18.35
2023-01-29T00:27:52.066Z,18.35
2023-01-29T00:28:52.080Z,18.35
2023-01-29T00:29:52.124Z,18.35
2023-01-29T00:30:52.094Z,18.35
2023-01-29T00:31:52.175Z,18.35
2023-01-29T00:32:52.088Z,18.35
2023-01-29T00:33:52.084Z,18.35
2023-01-29T00:34:52.087Z,18.35
2023-01-29T00:35:52.091Z,18.35
2023-01-29T00:36:52.136Z,18.35
2023-01-29T00:37:52.113Z,18.35
2023-01-29T00:38:52.109Z,18.35
2023-01-29T00:39:52.086Z,18.35
2023-01-29T00:40:52.106Z,18.35
2023-01-29T00:41:52.098Z,18.35
2023-01-29T00:42:52.118Z,18.35
2023-01-29T00:43:52.106Z,18.35
2023-01-29T00:44:52.116Z,18.35
2023-01-29T00:45:52.120Z,18.35
2023-01-29T00:46:52.094Z,18.35
2023-01-29T00:47:52.101Z,18.35
2023-01-29T00:48:52.100Z,18.35
2023-01-29T00:49:52.107Z,18.35
2023-01-29T00:50:52.097Z,18.35
2023-01-29T00:51:52.104Z,18.35
2023-01-29T00:52:52.111Z,18.35
2023-01-29T00:53:52.097Z,18.35
2023-01-29T00:54:52.101Z,18.35
2023-01-29T00:55:52.113Z,18.35
2023-01-29T00:56:52.118Z,18.35
2023-01-29T00:57:52.106Z,18.35
2023-01-29T00:58:52.107Z,18.35
2023-01-29T00:59:52.110Z,18.35
2023-01-29T01:00:52.158Z,18.35
2023-01-29T01:01:52.244Z,18.35
2023-01-29T01:02:52.116Z,18.35
2023-01-29T01:03:52.117Z,18.35
2023-01-29T01:04:52.110Z,18.35
2023-01-29T01:05:52.113Z,18.35
2023-01-29T01:06:52.128Z,18.35
2023-01-29T01:07:52.130Z,18.35
2023-01-29T01:08:52.129Z,18.35
2023-01-29T01:09:52.113Z,18.35
2023-01-29T01:10:52.108Z,18.35
2023-01-29T01:11:52.123Z,18.35
2023-01-29T01:12:52.113Z,18.35
2023-01-29T01:13:52.118Z,18.35
2023-01-29T01:14:52.121Z,18.35
2023-01-29T01:15:52.115Z,18.35
2023-01-29T01:16:52.118Z,18.35
2023-01-29T01:17:52.135Z,18.35
2023-01-29T01:18:52.119Z,18.35
2023-01-29T01:19:52.152Z,18.35
2023-01-29T01:20:52.141Z,18.35
2023-01-29T01:21:52.118Z,18.35
2023-01-29T01:22:52.136Z,18.35
2023-01-29T01:23:52.126Z,18.35
2023-01-29T01:24:52.125Z,18.35
2023-01-29T01:25:52.137Z,18.35
2023-01-29T01:26:52.124Z,18.35
2023-01-29T01:27:52.138Z,18.35
2023-01-29T01:28:52.132Z,18.35
2023-01-29T01:29:52.123Z,18.35
2023-01-29T01:30:52.213Z,18.35
2023-01-29T01:31:52.170Z,18.35
2023-01-29T01:32:52.140Z,18.35
2023-01-29T01:33:52.142Z,18.35
2023-01-29T01:34:52.134Z,18.35
2023-01-29T01:35:52.133Z,18.35
2023-01-29T01:36:52.153Z,18.35
2023-01-29T01:37:52.148Z,18.35
2023-01-29T01:38:52.140Z,18.35
2023-01-29T01:39:52.140Z,18.35
2023-01-29T01:40:52.134Z,18.35
2023-01-29T01:41:52.137Z,18.35
2023-01-29T01:42:52.146Z,18.35
2023-01-29T01:43:52.137Z,18.35
2023-01-29T01:44:52.141Z,18.35
2023-01-29T01:45:52.259Z,18.35
2023-01-29T01:46:52.134Z,18.35
2023-01-29T01:47:52.138Z,18.35
2023-01-29T01:48:52.173Z,18.35
2023-01-29T01:49:52.160Z,18.35
2023-01-29T01:50:52.143Z,18.35
2023-01-29T01:51:52.138Z,18.35
2023-01-29T01:52:52.159Z,18.35
2023-01-29T01:53:52.146Z,18.35
2023-01-29T01:54:52.141Z,18.35
2023-01-29T01:55:52.137Z,18.35
2023-01-29T01:56:52.151Z,18.35
2023-01-29T01:57:52.144Z,18.35
2023-01-29T01:58:52.150Z,18.35
2023-01-29T01:59:52.138Z,18.35
2023-01-29T02:00:52.175Z,18.35
2023-01-29T02:01:52.175Z,62.12
2023-01-29T02:02:52.133Z,64.94
2023-01-29T02:03:52.136Z,70.59
2023-01-29T02:04:52.149Z,36.71
2023-01-29T02:05:52.179Z,43.76
2023-01-29T02:06:52.139Z,73.41
2023-01-29T02:07:52.152Z,42.35
2023-01-29T02:08:52.144Z,45.18
2023-01-29T02:09:52.205Z,22.59
2023-01-29T02:10:52.158Z,33.88
2023-01-29T02:11:52.167Z,31.06
2023-01-29T02:12:52.158Z,358.59
2023-01-29T02:13:52.173Z,360
2023-01-29T02:14:52.171Z,1.41
2023-01-29T02:15:52.179Z,32.47
2023-01-29T02:16:52.176Z,19.76
2023-01-29T02:17:52.170Z,14.12
2023-01-29T02:18:52.173Z,35.29
2023-01-29T02:19:52.164Z,39.53
2023-01-29T02:20:52.179Z,38.12
2023-01-29T02:21:52.196Z,36.71
2023-01-29T02:22:52.185Z,25.41
2023-01-29T02:23:52.370Z,25.41
2023-01-29T02:24:52.197Z,25.41
2023-01-29T02:25:52.187Z,25.41
2023-01-29T02:26:52.175Z,25.41
2023-01-29T02:27:52.190Z,25.41
2023-01-29T02:28:52.180Z,25.41
2023-01-29T02:29:52.193Z,25.41
2023-01-29T02:30:52.212Z,25.41
2023-01-29T02:31:52.243Z,25.41
2023-01-29T02:32:52.200Z,25.41
2023-01-29T02:33:52.202Z,25.41
2023-01-29T02:34:52.192Z,25.41
2023-01-29T02:35:52.193Z,25.41
2023-01-29T02:36:52.191Z,25.41
2023-01-29T02:37:52.231Z,25.41
2023-01-29T02:38:52.207Z,25.41
2023-01-29T02:39:52.192Z,25.41
2023-01-29T02:40:52.210Z,25.41
2023-01-29T02:41:52.212Z,25.41
2023-01-29T02:42:52.208Z,25.41
2023-01-29T02:43:52.241Z,25.41
2023-01-29T02:44:52.227Z,25.41
2023-01-29T02:45:52.299Z,25.41
2023-01-29T02:46:52.253Z,25.41
2023-01-29T02:47:52.288Z,25.41
2023-01-29T02:48:52.233Z,25.41
2023-01-29T02:49:52.234Z,25.41
2023-01-29T02:50:52.232Z,25.41
2023-01-29T02:51:52.228Z,25.41
2023-01-29T02:52:52.227Z,25.41
2023-01-29T02:53:52.255Z,25.41
2023-01-29T02:54:52.243Z,25.41
2023-01-29T02:55:52.240Z,25.41
2023-01-29T02:56:52.227Z,25.41
2023-01-29T02:57:52.241Z,25.41
2023-01-29T02:58:52.245Z,25.41
2023-01-29T02:59:52.251Z,25.41
2023-01-29T03:00:52.288Z,25.41
2023-01-29T03:01:52.242Z,25.41
2023-01-29T03:02:52.241Z,25.41
2023-01-29T03:03:52.236Z,25.41
2023-01-29T03:04:52.252Z,25.41
2023-01-29T03:05:52.237Z,25.41
2023-01-29T03:06:52.246Z,25.41
2023-01-29T03:07:52.253Z,25.41
2023-01-29T03:08:52.244Z,25.41
2023-01-29T03:09:52.272Z,25.41
2023-01-29T03:10:52.255Z,25.41
2023-01-29T03:11:52.253Z,25.41
2023-01-29T03:12:52.311Z,25.41
2023-01-29T03:13:52.262Z,25.41
2023-01-29T03:14:52.258Z,25.41
2023-01-29T03:15:52.269Z,25.41
2023-01-29T03:16:52.272Z,25.41
2023-01-29T03:17:52.261Z,25.41
2023-01-29T03:18:52.260Z,25.41
2023-01-29T03:19:52.266Z,25.41
2023-01-29T03:20:52.265Z,25.41
2023-01-29T03:21:52.275Z,25.41
2023-01-29T03:22:52.281Z,25.41
2023-01-29T03:23:52.275Z,25.41
2023-01-29T03:24:52.278Z,25.41
2023-01-29T03:25:52.298Z,25.41
2023-01-29T03:26:52.276Z,25.41
2023-01-29T03:27:52.267Z,25.41
2023-01-29T03:28:52.282Z,25.41
2023-01-29T03:29:52.302Z,25.41
2023-01-29T03:30:52.297Z,25.41
2023-01-29T03:31:52.310Z,25.41
2023-01-29T03:32:52.285Z,25.41
2023-01-29T03:33:52.286Z,25.41
2023-01-29T03:34:52.285Z,25.41
2023-01-29T03:35:52.290Z,25.41
2023-01-29T03:36:52.293Z,25.41
2023-01-29T03:37:52.299Z,25.41
2023-01-29T03:38:52.283Z,25.41
2023-01-29T03:39:52.288Z,25.41
2023-01-29T03:40:52.295Z,25.41
2023-01-29T03:41:52.320Z,25.41
2023-01-29T03:42:52.308Z,25.41
2023-01-29T03:43:52.313Z,25.41
2023-01-29T03:44:52.298Z,25.41
2023-01-29T03:45:52.391Z,25.41
2023-01-29T03:46:52.313Z,25.41
2023-01-29T03:47:52.302Z,25.41
2023-01-29T03:48:52.318Z,25.41
2023-01-29T03:49:52.304Z,25.41
2023-01-29T03:50:52.334Z,25.41
2023-01-29T03:51:52.320Z,25.41
2023-01-29T03:52:52.326Z,25.41
2023-01-29T03:53:52.315Z,25.41
2023-01-29T03:54:52.363Z,25.41
2023-01-29T03:55:52.317Z,25.41
2023-01-29T03:56:52.333Z,25.41
2023-01-29T03:57:52.319Z,25.41
2023-01-29T03:58:52.331Z,35.29
2023-01-29T03:59:52.315Z,31.06
2023-01-29T04:00:52.332Z,31.06
2023-01-29T04:01:52.349Z,31.06
2023-01-29T04:02:52.338Z,31.06
2023-01-29T04:03:52.382Z,31.06
2023-01-29T04:04:52.347Z,31.06
2023-01-29T04:05:52.367Z,31.06
2023-01-29T04:06:52.334Z,31.06
2023-01-29T04:07:52.349Z,31.06
2023-01-29T04:08:52.344Z,31.06
2023-01-29T04:09:52.350Z,31.06
2023-01-29T04:10:52.338Z,31.06
2023-01-29T04:11:52.371Z,31.06
2023-01-29T04:12:52.354Z,31.06
2023-01-29T04:13:52.355Z,31.06
2023-01-29T04:14:52.347Z,31.06
2023-01-29T04:15:52.367Z,31.06
2023-01-29T04:16:52.351Z,31.06
2023-01-29T04:17:52.358Z,31.06
2023-01-29T04:18:52.352Z,31.06
2023-01-29T04:19:52.369Z,31.06
2023-01-29T04:20:52.366Z,31.06
2023-01-29T04:21:52.354Z,31.06
2023-01-29T04:22:52.375Z,31.06
2023-01-29T04:23:52.368Z,31.06
2023-01-29T04:24:52.364Z,31.06
2023-01-29T04:25:52.356Z,31.06
2023-01-29T04:26:52.354Z,31.06
2023-01-29T04:27:52.357Z,31.06
2023-01-29T04:28:52.377Z,31.06
2023-01-29T04:29:52.366Z,31.06
2023-01-29T04:30:52.458Z,31.06
2023-01-29T04:31:52.429Z,31.06
2023-01-29T04:32:52.382Z,31.06
2023-01-29T04:33:52.387Z,31.06
2023-01-29T04:34:52.367Z,31.06
2023-01-29T04:35:52.379Z,31.06
2023-01-29T04:36:52.408Z,31.06
2023-01-29T04:37:52.377Z,31.06
2023-01-29T04:38:52.385Z,31.06
2023-01-29T04:39:52.388Z,31.06
2023-01-29T04:40:52.387Z,31.06
2023-01-29T04:41:52.384Z,31.06
2023-01-29T04:42:52.394Z,31.06
2023-01-29T04:43:52.380Z,31.06
2023-01-29T04:44:52.394Z,31.06
2023-01-29T04:45:52.392Z,31.06
2023-01-29T04:46:52.387Z,31.06
2023-01-29T04:47:52.391Z,31.06
2023-01-29T04:48:52.384Z,31.06
2023-01-29T04:49:52.402Z,31.06
2023-01-29T04:50:52.395Z,31.06
2023-01-29T04:51:52.391Z,31.06
2023-01-29T04:52:52.407Z,31.06
2023-01-29T04:53:52.392Z,31.06
2023-01-29T04:54:52.402Z,31.06
2023-01-29T04:55:52.413Z,31.06
2023-01-29T04:56:52.405Z,31.06
2023-01-29T04:57:52.411Z,31.06
2023-01-29T04:58:52.418Z,31.06
2023-01-29T04:59:52.393Z,31.06
2023-01-29T05:00:52.413Z,31.06
2023-01-29T05:01:52.446Z,31.06
2023-01-29T05:02:52.443Z,31.06
2023-01-29T05:03:52.404Z,31.06
2023-01-29T05:04:52.419Z,31.06
2023-01-29T05:05:52.428Z,31.06
2023-01-29T05:06:52.414Z,31.06
2023-01-29T05:07:52.423Z,31.06
2023-01-29T05:08:52.427Z,31.06
2023-01-29T05:09:52.404Z,31.06
2023-01-29T05:10:52.413Z,31.06
2023-01-29T05:11:52.446Z,31.06
2023-01-29T05:12:52.423Z,31.06
2023-01-29T05:13:52.436Z,31.06
2023-01-29T05:14:52.409Z,31.06
2023-01-29T05:15:52.484Z,31.06
2023-01-29T05:16:52.411Z,31.06
2023-01-29T05:17:52.433Z,31.06
2023-01-29T05:18:52.427Z,31.06
2023-01-29T05:19:52.418Z,31.06
2023-01-29T05:20:52.417Z,31.06
2023-01-29T05:21:52.463Z,31.06
2023-01-29T05:22:52.421Z,31.06
2023-01-29T05:23:52.439Z,31.06
2023-01-29T05:24:52.436Z,31.06
2023-01-29T05:25:52.425Z,31.06
2023-01-29T05:26:52.431Z,31.06
2023-01-29T05:27:52.434Z,31.06
2023-01-29T05:28:52.540Z,31.06
2023-01-29T05:29:52.490Z,31.06
2023-01-29T05:30:52.468Z,31.06
2023-01-29T05:31:52.492Z,31.06
2023-01-29T05:32:52.455Z,31.06
2023-01-29T05:33:52.499Z,31.06
2023-01-29T05:34:52.437Z,31.06
2023-01-29T05:35:52.426Z,31.06
2023-01-29T05:36:52.453Z,31.06
2023-01-29T05:37:52.476Z,31.06
2023-01-29T05:38:52.450Z,31.06
2023-01-29T05:39:52.441Z,31.06
2023-01-29T05:40:52.453Z,31.06
2023-01-29T05:41:52.439Z,31.06
2023-01-29T05:42:52.453Z,31.06
2023-01-29T05:43:52.437Z,31.06
2023-01-29T05:44:52.503Z,31.06
2023-01-29T05:45:52.442Z,31.06
2023-01-29T05:46:52.504Z,31.06
2023-01-29T05:47:52.454Z,31.06
2023-01-29T05:48:52.446Z,31.06
2023-01-29T05:49:52.442Z,31.06
2023-01-29T05:50:52.462Z,31.06
2023-01-29T05:51:52.448Z,31.06
2023-01-29T05:52:52.446Z,31.06
2023-01-29T05:53:52.459Z,31.06
2023-01-29T05:54:52.472Z,31.06
2023-01-29T05:55:52.447Z,31.06
2023-01-29T05:56:52.454Z,31.06
2023-01-29T05:57:52.460Z,31.06
2023-01-29T05:58:52.456Z,31.06
2023-01-29T05:59:52.453Z,31.06
2023-01-29T06:00:52.449Z,31.06
2023-01-29T06:01:52.750Z,31.06
2023-01-29T06:02:52.544Z,31.06
2023-01-29T06:03:52.458Z,31.06
2023-01-29T06:04:52.456Z,31.06
2023-01-29T06:05:52.470Z,31.06
2023-01-29T06:06:52.470Z,31.06
2023-01-29T06:07:52.470Z,31.06
2023-01-29T06:08:52.484Z,31.06
2023-01-29T06:09:52.462Z,31.06
2023-01-29T06:10:52.466Z,31.06
2023-01-29T06:11:52.455Z,31.06
2023-01-29T06:12:52.462Z,31.06
2023-01-29T06:13:52.475Z,31.06
2023-01-29T06:14:52.457Z,31.06
2023-01-29T06:15:52.527Z,31.06
2023-01-29T06:16:52.452Z,31.06
2023-01-29T06:17:52.488Z,31.06
2023-01-29T06:18:52.477Z,31.06
2023-01-29T06:19:52.461Z,31.06
2023-01-29T06:20:52.466Z,31.06
2023-01-29T06:21:52.464Z,31.06
2023-01-29T06:22:52.467Z,31.06
2023-01-29T06:23:52.475Z,31.06
2023-01-29T06:24:52.470Z,31.06
2023-01-29T06:25:52.475Z,31.06
2023-01-29T06:26:52.471Z,31.06
2023-01-29T06:27:52.465Z,31.06
2023-01-29T06:28:52.477Z,31.06
2023-01-29T06:29:52.474Z,31.06
2023-01-29T06:30:52.521Z,31.06
2023-01-29T06:31:52.575Z,31.06
2023-01-29T06:32:52.474Z,31.06
2023-01-29T06:33:52.539Z,31.06
2023-01-29T06:34:52.476Z,31.06
2023-01-29T06:35:52.464Z,31.06
2023-01-29T06:36:52.464Z,31.06
2023-01-29T06:37:52.480Z,31.06
2023-01-29T06:38:52.469Z,31.06
2023-01-29T06:39:52.472Z,31.06
2023-01-29T06:40:52.550Z,31.06
2023-01-29T06:41:52.471Z,31.06
2023-01-29T06:42:52.481Z,31.06
2023-01-29T06:43:52.500Z,31.06
2023-01-29T06:44:52.490Z,31.06
2023-01-29T06:45:52.560Z,31.06
2023-01-29T06:46:52.499Z,31.06
2023-01-29T06:47:52.488Z,31.06
2023-01-29T06:48:52.500Z,31.06
2023-01-29T06:49:52.485Z,31.06
2023-01-29T06:50:52.509Z,31.06
2023-01-29T06:51:52.496Z,31.06
2023-01-29T06:52:52.505Z,31.06
2023-01-29T06:53:52.523Z,31.06
2023-01-29T06:54:52.525Z,31.06
2023-01-29T06:55:52.491Z,31.06
2023-01-29T06:56:52.490Z,31.06
2023-01-29T06:57:52.511Z,31.06
2023-01-29T06:58:52.493Z,31.06
2023-01-29T06:59:52.513Z,31.06
2023-01-29T07:00:52.608Z,31.06
2023-01-29T07:01:52.649Z,31.06
2023-01-29T07:02:52.528Z,31.06
2023-01-29T07:03:52.507Z,31.06
2023-01-29T07:04:52.520Z,31.06
2023-01-29T07:05:52.525Z,31.06
2023-01-29T07:06:52.513Z,31.06
2023-01-29T07:07:52.530Z,31.06
2023-01-29T07:08:52.510Z,31.06
2023-01-29T07:09:52.516Z,31.06
2023-01-29T07:10:52.522Z,31.06
2023-01-29T07:11:52.539Z,31.06
2023-01-29T07:12:52.514Z,31.06
2023-01-29T07:13:52.534Z,31.06
2023-01-29T07:14:52.539Z,31.06
2023-01-29T07:15:52.567Z,31.06
2023-01-29T07:16:52.517Z,31.06
2023-01-29T07:17:52.539Z,31.06
2023-01-29T07:18:52.533Z,31.06
2023-01-29T07:19:52.585Z,31.06
2023-01-29T07:20:52.528Z,31.06
2023-01-29T07:21:52.561Z,31.06
2023-01-29T07:22:52.530Z,31.06
2023-01-29T07:23:52.530Z,31.06
2023-01-29T07:24:52.526Z,31.06
2023-01-29T07:25:52.552Z,31.06
2023-01-29T07:26:52.544Z,31.06
2023-01-29T07:27:52.551Z,31.06
2023-01-29T07:28:52.551Z,31.06
2023-01-29T07:29:52.538Z,31.06
2023-01-29T07:30:52.546Z,31.06
2023-01-29T07:31:52.687Z,31.06
2023-01-29T07:32:52.544Z,31.06
2023-01-29T07:33:52.564Z,31.06
2023-01-29T07:34:52.552Z,31.06
2023-01-29T07:35:52.595Z,31.06
2023-01-29T07:36:52.557Z,31.06
2023-01-29T07:37:52.563Z,31.06
2023-01-29T07:38:52.562Z,31.06
2023-01-29T07:39:52.557Z,31.06
2023-01-29T07:40:52.558Z,31.06
2023-01-29T07:41:52.582Z,31.06
2023-01-29T07:42:52.575Z,31.06
2023-01-29T07:43:52.580Z,31.06
2023-01-29T07:44:52.571Z,31.06
2023-01-29T07:45:52.654Z,31.06
2023-01-29T07:46:52.575Z,31.06
2023-01-29T07:47:52.588Z,31.06
2023-01-29T07:48:52.579Z,31.06
2023-01-29T07:49:52.567Z,31.06
2023-01-29T07:50:52.572Z,31.06
2023-01-29T07:51:52.566Z,31.06
2023-01-29T07:52:52.569Z,31.06
2023-01-29T07:53:52.573Z,31.06
2023-01-29T07:54:52.587Z,31.06
2023-01-29T07:55:52.589Z,31.06
2023-01-29T07:56:52.583Z,31.06
2023-01-29T07:57:52.578Z,31.06
2023-01-29T07:58:52.600Z,31.06
2023-01-29T07:59:52.581Z,31.06
2023-01-29T08:00:52.640Z,31.06
2023-01-29T08:01:52.655Z,31.06
2023-01-29T08:02:52.614Z,31.06
2023-01-29T08:03:52.593Z,31.06
2023-01-29T08:04:52.590Z,31.06
2023-01-29T08:05:52.601Z,31.06
2023-01-29T08:06:52.596Z,31.06
2023-01-29T08:08:05.515Z,31.06
2023-01-29T08:08:52.616Z,31.06
2023-01-29T08:09:52.609Z,31.06
2023-01-29T08:10:52.614Z,31.06
2023-01-29T08:11:52.612Z,31.06
2023-01-29T08:12:52.624Z,31.06
2023-01-29T08:13:52.665Z,31.06
2023-01-29T08:14:52.628Z,31.06
2023-01-29T08:15:52.615Z,31.06
2023-01-29T08:16:52.665Z,31.06
2023-01-29T08:17:57.680Z,31.06
2023-01-29T08:18:52.635Z,31.06
2023-01-29T08:19:52.622Z,31.06
2023-01-29T08:20:52.972Z,31.06
2023-01-29T08:21:52.619Z,31.06
2023-01-29T08:22:52.634Z,31.06
2023-01-29T08:23:52.637Z,31.06
2023-01-29T08:24:53.905Z,31.06
2023-01-29T08:25:52.721Z,31.06
2023-01-29T08:26:52.628Z,31.06
2023-01-29T08:27:52.642Z,31.06
2023-01-29T08:28:52.643Z,31.06
2023-01-29T08:29:52.722Z,31.06
2023-01-29T08:30:52.708Z,31.06
2023-01-29T08:31:52.739Z,31.06
2023-01-29T08:32:52.656Z,31.06
2023-01-29T08:33:52.655Z,31.06
2023-01-29T08:34:52.653Z,31.06
2023-01-29T08:35:52.650Z,31.06
2023-01-29T08:36:52.655Z,31.06
2023-01-29T08:37:52.650Z,31.06
2023-01-29T08:38:52.657Z,31.06
2023-01-29T08:39:52.668Z,31.06
2023-01-29T08:40:52.658Z,31.06
2023-01-29T08:41:52.664Z,31.06
2023-01-29T08:42:52.652Z,31.06
2023-01-29T08:43:52.657Z,31.06
2023-01-29T08:44:52.708Z,31.06
2023-01-29T08:45:52.703Z,31.06
2023-01-29T08:46:52.667Z,31.06
2023-01-29T08:47:52.663Z,31.06
2023-01-29T08:48:52.667Z,31.06
2023-01-29T08:49:52.673Z,31.06
2023-01-29T08:50:52.660Z,31.06
2023-01-29T08:51:52.675Z,31.06
2023-01-29T08:52:52.666Z,31.06
2023-01-29T08:53:52.667Z,31.06
2023-01-29T08:54:52.668Z,31.06
2023-01-29T08:55:52.688Z,31.06
2023-01-29T08:56:52.674Z,31.06
2023-01-29T08:57:52.676Z,31.06
2023-01-29T08:58:52.672Z,31.06
2023-01-29T08:59:52.675Z,31.06
2023-01-29T09:00:52.746Z,31.06
2023-01-29T09:01:52.683Z,31.06
2023-01-29T09:02:52.676Z,31.06
2023-01-29T09:03:52.695Z,31.06
2023-01-29T09:04:52.690Z,31.06
2023-01-29T09:05:52.684Z,31.06
2023-01-29T09:06:52.685Z,31.06
2023-01-29T09:07:54.200Z,31.06
2023-01-29T09:08:52.689Z,31.06
2023-01-29T09:09:52.687Z,31.06
2023-01-29T09:10:52.681Z,31.06
2023-01-29T09:11:52.688Z,31.06
2023-01-29T09:12:52.688Z,31.06
2023-01-29T09:13:52.688Z,31.06
2023-01-29T09:14:52.770Z,31.06
2023-01-29T09:15:52.702Z,31.06
2023-01-29T09:16:52.720Z,31.06
2023-01-29T09:17:52.694Z,31.06
2023-01-29T09:18:52.711Z,31.06
2023-01-29T09:19:52.714Z,31.06
2023-01-29T09:20:52.695Z,31.06
2023-01-29T09:21:52.702Z,31.06
2023-01-29T09:22:52.699Z,31.06
2023-01-29T09:23:52.707Z,31.06
2023-01-29T09:24:52.703Z,31.06
2023-01-29T09:25:52.712Z,31.06
2023-01-29T09:26:52.738Z,31.06
2023-01-29T09:27:52.803Z,31.06
2023-01-29T09:28:52.694Z,31.06
2023-01-29T09:29:52.717Z,31.06
2023-01-29T09:30:52.775Z,31.06
2023-01-29T09:31:52.893Z,31.06
2023-01-29T09:32:54.353Z,31.06
2023-01-29T09:33:52.722Z,31.06
2023-01-29T09:34:52.702Z,31.06
2023-01-29T09:35:52.802Z,31.06
2023-01-29T09:36:52.733Z,31.06
2023-01-29T09:37:52.798Z,31.06
2023-01-29T09:38:52.721Z,31.06
2023-01-29T09:39:52.783Z,31.06
2023-01-29T09:40:52.727Z,31.06
2023-01-29T09:41:52.709Z,31.06
2023-01-29T09:42:52.726Z,31.06
2023-01-29T09:43:52.729Z,31.06
2023-01-29T09:44:52.722Z,31.06
2023-01-29T09:45:52.767Z,31.06
2023-01-29T09:46:52.742Z,31.06
2023-01-29T09:47:52.752Z,31.06
2023-01-29T09:48:52.729Z,31.06
2023-01-29T09:49:52.741Z,31.06
2023-01-29T09:50:52.781Z,31.06
2023-01-29T09:51:52.814Z,31.06
2023-01-29T09:52:52.731Z,31.06
2023-01-29T09:53:52.735Z,31.06
2023-01-29T09:54:52.758Z,31.06
2023-01-29T09:55:52.743Z,31.06
2023-01-29T09:56:52.732Z,31.06
2023-01-29T09:57:52.743Z,31.06
2023-01-29T09:58:52.738Z,31.06
2023-01-29T09:59:52.739Z,31.06
2023-01-29T10:00:52.744Z,31.06
2023-01-29T10:01:52.930Z,31.06
2023-01-29T10:02:52.744Z,138.35
2023-01-29T10:03:52.745Z,111.53
2023-01-29T10:04:52.840Z,83.29
2023-01-29T10:05:52.750Z,64.94
2023-01-29T10:06:52.735Z,354.35
2023-01-29T10:07:52.746Z,355.76
2023-01-29T10:08:52.735Z,355.76
2023-01-29T10:09:52.757Z,111.53
2023-01-29T10:10:52.760Z,87.53
2023-01-29T10:11:52.789Z,77.65
2023-01-29T10:12:52.745Z,39.53
2023-01-29T10:13:52.740Z,39.53
2023-01-29T10:14:52.793Z,39.53
2023-01-29T10:15:52.741Z,39.53
2023-01-29T10:16:52.813Z,39.53
2023-01-29T10:17:52.737Z,39.53
2023-01-29T10:18:52.751Z,79.06
2023-01-29T10:19:52.734Z,105.88
2023-01-29T10:20:52.756Z,105.88
2023-01-29T10:21:52.736Z,105.88
2023-01-29T10:22:52.735Z,31.06
2023-01-29T10:23:52.740Z,24
2023-01-29T10:24:52.759Z,14.12
2023-01-29T10:25:52.759Z,14.12
2023-01-29T10:26:52.737Z,14.12
2023-01-29T10:27:52.743Z,14.12
2023-01-29T10:28:52.754Z,14.12
2023-01-29T10:29:52.743Z,14.12
2023-01-29T10:30:52.840Z,14.12
2023-01-29T10:31:52.880Z,14.12
2023-01-29T10:32:52.755Z,14.12
2023-01-29T10:34:02.274Z,14.12
2023-01-29T10:34:52.755Z,14.12
2023-01-29T10:35:53.420Z,14.12
2023-01-29T10:36:52.765Z,14.12
2023-01-29T10:37:52.756Z,14.12
2023-01-29T10:38:52.807Z,14.12
2023-01-29T10:39:52.747Z,14.12
2023-01-29T10:40:52.749Z,14.12
2023-01-29T10:41:53.953Z,14.12
2023-01-29T10:42:52.750Z,14.12
2023-01-29T10:43:52.755Z,91.76
2023-01-29T10:44:52.766Z,120
2023-01-29T10:45:52.751Z,80.47
2023-01-29T10:46:52.770Z,80.47
2023-01-29T10:47:52.889Z,80.47
2023-01-29T10:48:52.745Z,80.47
2023-01-29T10:49:52.748Z,80.47
2023-01-29T10:50:52.780Z,80.47
2023-01-29T10:51:52.739Z,80.47
2023-01-29T10:52:52.745Z,80.47
2023-01-29T10:53:52.743Z,80.47
2023-01-29T10:54:52.746Z,80.47
2023-01-29T10:55:52.746Z,80.47
2023-01-29T10:56:52.748Z,80.47
2023-01-29T10:57:52.756Z,80.47
2023-01-29T10:58:52.750Z,80.47
2023-01-29T10:59:52.757Z,80.47
2023-01-29T11:00:52.766Z,80.47
2023-01-29T11:01:52.845Z,80.47
2023-01-29T11:02:53.064Z,80.47
2023-01-29T11:03:52.751Z,80.47
2023-01-29T11:04:52.743Z,80.47
2023-01-29T11:05:52.748Z,80.47
2023-01-29T11:06:52.751Z,80.47
2023-01-29T11:07:52.751Z,80.47
2023-01-29T11:08:52.749Z,80.47
2023-01-29T11:09:52.744Z,80.47
2023-01-29T11:10:52.751Z,80.47
2023-01-29T11:11:52.789Z,80.47
2023-01-29T11:12:52.752Z,80.47
2023-01-29T11:13:52.746Z,271.06
2023-01-29T11:14:52.770Z,285.18
2023-01-29T11:15:52.758Z,279.53
2023-01-29T11:16:52.785Z,266.82
2023-01-29T11:17:52.762Z,288
2023-01-29T11:18:52.762Z,289.41
2023-01-29T11:19:52.783Z,288
2023-01-29T11:20:52.743Z,255.53
2023-01-29T11:21:52.758Z,255.53
2023-01-29T11:22:52.743Z,255.53
2023-01-29T11:23:52.748Z,255.53
2023-01-29T11:24:52.771Z,255.53
2023-01-29T11:25:52.749Z,255.53
2023-01-29T11:26:52.744Z,255.53
2023-01-29T11:27:52.759Z,255.53
2023-01-29T11:28:52.738Z,255.53
2023-01-29T11:29:52.741Z,255.53
2023-01-29T11:30:52.907Z,255.53
2023-01-29T11:31:52.826Z,255.53
2023-01-29T11:32:52.751Z,255.53
2023-01-29T11:33:52.760Z,255.53
2023-01-29T11:34:52.744Z,255.53
2023-01-29T11:35:52.860Z,255.53
2023-01-29T11:36:52.767Z,255.53
2023-01-29T11:37:52.750Z,255.53
2023-01-29T11:38:52.751Z,255.53
2023-01-29T11:39:52.769Z,255.53
2023-01-29T11:40:52.761Z,255.53
2023-01-29T11:41:52.822Z,255.53
2023-01-29T11:42:52.852Z,255.53
2023-01-29T11:43:52.747Z,255.53
2023-01-29T11:44:52.744Z,255.53
2023-01-29T11:45:52.756Z,255.53
2023-01-29T11:46:52.755Z,255.53
2023-01-29T11:47:52.746Z,255.53
2023-01-29T11:48:53.601Z,255.53
2023-01-29T11:49:52.754Z,255.53
2023-01-29T11:50:52.743Z,255.53
2023-01-29T11:51:52.755Z,255.53
2023-01-29T11:52:52.750Z,255.53
2023-01-29T11:53:52.748Z,255.53
2023-01-29T11:54:52.839Z,255.53
2023-01-29T11:55:52.757Z,255.53
2023-01-29T11:56:52.755Z,255.53
2023-01-29T11:57:52.799Z,255.53
2023-01-29T11:58:52.743Z,255.53
2023-01-29T11:59:52.744Z,255.53
2023-01-29T12:00:52.744Z,255.53
2023-01-29T12:01:52.747Z,255.53
2023-01-29T12:02:52.742Z,255.53
2023-01-29T12:03:52.790Z,255.53
2023-01-29T12:04:52.745Z,255.53
2023-01-29T12:05:52.830Z,255.53
2023-01-29T12:06:52.740Z,255.53
2023-01-29T12:07:52.742Z,255.53
2023-01-29T12:08:52.765Z,255.53
2023-01-29T12:09:52.753Z,255.53
2023-01-29T12:10:52.747Z,255.53
2023-01-29T12:11:52.773Z,255.53
2023-01-29T12:12:52.763Z,255.53
2023-01-29T12:13:52.748Z,255.53
2023-01-29T12:14:52.765Z,255.53
2023-01-29T12:15:54.802Z,255.53
2023-01-29T12:16:52.752Z,255.53
2023-01-29T12:17:52.777Z,255.53
2023-01-29T12:18:52.759Z,255.53
2023-01-29T12:19:52.760Z,255.53
2023-01-29T12:20:52.758Z,255.53
2023-01-29T12:21:52.755Z,255.53
2023-01-29T12:22:52.754Z,255.53
2023-01-29T12:23:52.772Z,255.53
2023-01-29T12:24:52.819Z,255.53
2023-01-29T12:25:52.752Z,255.53
2023-01-29T12:26:52.776Z,255.53
2023-01-29T12:27:52.759Z,255.53
2023-01-29T12:28:52.776Z,255.53
2023-01-29T12:29:52.768Z,255.53
2023-01-29T12:30:52.829Z,255.53
2023-01-29T12:31:52.776Z,255.53
2023-01-29T12:32:52.773Z,255.53
2023-01-29T12:33:52.823Z,255.53
2023-01-29T12:34:52.781Z,255.53
2023-01-29T12:35:52.768Z,255.53
2023-01-29T12:36:52.776Z,255.53
2023-01-29T12:37:52.774Z,255.53
2023-01-29T12:38:52.775Z,255.53
2023-01-29T12:39:52.799Z,255.53
2023-01-29T12:40:52.773Z,255.53
2023-01-29T12:41:52.787Z,255.53
2023-01-29T12:42:52.780Z,255.53
2023-01-29T12:43:52.769Z,255.53
2023-01-29T12:44:52.775Z,255.53
2023-01-29T12:45:52.812Z,255.53
2023-01-29T12:46:52.906Z,255.53
2023-01-29T12:47:52.785Z,255.53
2023-01-29T12:48:52.785Z,255.53
2023-01-29T12:49:52.798Z,255.53